Time;durP1;ratioP1;P1;durP2;ratioP2;P2;SDS_P1;SDS_P2;PMS_P1;PMS_P2;Temp;Humidity;BMP_temperature;BMP_pressure;BME280_temperature;BME280_humidity;BME280_pressure;Samples;Min_cycle;Max_cycle;Signal;HPM_P1;HPM_P2
2022/06/22 00:00:37;;;;;;;7.25;6.30;;;11.80;99.90;;;;;;4984535;28;20046;-44
2022/06/22 00:03:07;;;;;;;11.23;10.05;;;11.80;99.90;;;;;;4984557;28;20188;-43
2022/06/22 00:05:47;;;;;;;11.93;10.30;;;11.80;99.90;;;;;;4995506;28;20491;-44
2022/06/22 00:08:20;;;;;;;14.57;10.93;;;11.70;99.90;;;;;;5002934;28;20111;-44
2022/06/22 00:10:53;;;;;;;21.83;14.10;;;11.70;99.90;;;;;;5004075;28;20050;-43
2022/06/22 00:13:28;;;;;;;20.08;12.43;;;11.60;99.90;;;;;;5003798;28;20089;-45
2022/06/22 00:16:01;;;;;;;15.45;13.05;;;11.60;99.90;;;;;;4999038;28;20416;-46
2022/06/22 00:18:45;;;;;;;13.43;12.07;;;11.60;99.90;;;;;;4983589;28;20547;-43
2022/06/22 00:21:26;;;;;;;10.82;8.05;;;11.60;99.90;;;;;;5094466;22;20718;-44
2022/06/22 00:23:56;;;;;;;6.10;5.50;;;11.50;99.90;;;;;;5023487;28;20053;-48
2022/06/22 00:26:24;;;;;;;7.00;5.45;;;11.40;99.90;;;;;;5022980;28;20053;-42
2022/06/22 00:28:53;;;;;;;9.32;4.70;;;11.30;99.90;;;;;;5022875;28;20099;-44
2022/06/22 00:31:28;;;;;;;6.80;6.10;;;11.30;99.90;;;;;;5023382;28;20491;-41
2022/06/22 00:34:01;;;;;;;7.43;6.25;;;11.30;99.90;;;;;;5027520;28;20053;-43
2022/06/22 00:36:32;;;;;;;6.43;5.80;;;11.20;99.90;;;;;;5041905;28;20052;-43
2022/06/22 00:39:18;;;;;;;11.02;8.07;;;11.10;99.90;;;;;;5043128;28;20041;-42
2022/06/22 00:41:53;;;;;;;10.80;8.02;;;11.20;99.90;;;;;;5027238;28;20053;-44
2022/06/22 00:44:20;;;;;;;7.57;6.88;;;11.10;99.90;;;;;;5042355;28;20060;-41
2022/06/22 00:47:02;;;;;;;7.53;6.82;;;11.10;99.90;;;;;;5038803;28;20053;-41
2022/06/22 00:49:29;;;;;;;9.73;8.75;;;11.10;99.90;;;;;;5042148;28;20087;-41
2022/06/22 00:52:00;;;;;;;25.20;6.80;;;11.00;99.90;;;;;;5050452;28;20056;-42
2022/06/22 00:54:29;;;;;;;5.88;4.47;;;10.90;99.90;;;;;;5059547;28;20123;-43
2022/06/22 00:57:04;;;;;;;7.72;4.70;;;10.80;99.90;;;;;;5041610;28;20049;-42
2022/06/22 00:59:42;;;;;;;5.25;4.75;;;10.70;99.90;;;;;;5041424;28;20106;-42
2022/06/22 01:02:29;;;;;;;7.90;5.13;;;10.70;99.90;;;;;;5042652;28;20586;-41
2022/06/22 01:05:12;;;;;;;9.20;7.50;;;10.70;99.90;;;;;;5041736;28;20478;-42
2022/06/22 01:07:52;;;;;;;8.18;7.38;;;10.70;99.90;;;;;;5041531;28;20060;-43
2022/06/22 01:10:41;;;;;;;8.02;6.65;;;10.60;99.90;;;;;;5042310;28;20049;-44
2022/06/22 01:13:25;;;;;;;5.25;4.80;;;10.60;99.90;;;;;;5049498;28;20060;-44
2022/06/22 01:16:02;;;;;;;6.25;5.65;;;10.60;99.90;;;;;;5038794;28;20049;-44
2022/06/22 01:18:48;;;;;;;7.30;6.60;;;10.60;99.90;;;;;;5041444;28;20454;-43
2022/06/22 01:21:25;;;;;;;6.35;5.75;;;10.60;99.90;;;;;;5046220;28;20057;-43
2022/06/22 01:23:59;;;;;;;8.13;7.20;;;10.50;99.90;;;;;;5056648;28;20056;-44
2022/06/22 01:26:46;;;;;;;9.82;8.93;;;10.50;99.90;;;;;;5044008;28;20055;-43
2022/06/22 01:29:14;;;;;;;9.98;8.98;;;10.40;99.90;;;;;;5035808;28;20076;-45
2022/06/22 01:32:00;;;;;;;8.07;7.35;;;10.40;99.90;;;;;;5041510;28;20053;-41
2022/06/22 01:34:37;;;;;;;7.47;6.80;;;10.40;99.90;;;;;;5045960;28;20040;-44
2022/06/22 01:37:13;;;;;;;5.88;5.13;;;10.30;99.90;;;;;;5041782;28;20053;-47
2022/06/22 01:39:39;;;;;;;7.53;5.40;;;10.30;99.90;;;;;;5055348;28;20040;-43
2022/06/22 01:42:29;;;;;;;8.05;5.70;;;10.30;99.90;;;;;;5041748;28;20422;-48
2022/06/22 01:45:09;;;;;;;6.85;5.43;;;10.30;99.90;;;;;;5041024;28;20064;-45
2022/06/22 01:48:05;;;;;;;8.27;4.60;;;10.30;99.90;;;;;;5038894;28;20102;-44
2022/06/22 01:50:48;;;;;;;16.63;6.15;;;10.30;99.90;;;;;;5039074;28;20057;-43
2022/06/22 01:53:33;;;;;;;19.50;8.97;;;10.10;99.90;;;;;;5041609;28;20084;-44
2022/06/22 01:56:27;;;;;;;58.47;12.50;;;10.10;99.90;;;;;;5034764;28;20095;-43
2022/06/22 01:59:07;;;;;;;36.05;12.00;;;10.00;99.90;;;;;;5040945;28;20060;-43
2022/06/22 02:01:45;;;;;;;9.65;8.65;;;9.90;99.90;;;;;;5042906;28;20060;-44
2022/06/22 02:04:22;;;;;;;8.73;7.85;;;9.90;99.90;;;;;;5034952;28;20059;-44
2022/06/22 02:09:53;;;;;;;10.05;8.10;;;9.80;99.90;;;;;;5041235;28;20055;-43
2022/06/22 02:12:26;;;;;;;10.88;9.77;;;9.80;99.90;;;;;;5039451;28;20284;-43
2022/06/22 02:15:29;;;;;;;8.95;8.10;;;9.70;99.90;;;;;;5040871;28;20434;-43
2022/06/22 02:17:56;;;;;;;9.85;8.95;;;9.70;99.90;;;;;;4959215;28;20070;-43
2022/06/22 02:20:30;;;;;;;7.15;6.45;;;9.70;99.90;;;;;;4965128;28;20054;-44
2022/06/22 02:23:19;;;;;;;7.28;6.63;;;9.60;99.90;;;;;;4973069;28;20046;-43
2022/06/22 02:26:01;;;;;;;7.38;6.55;;;9.60;99.90;;;;;;4954510;28;20058;-44
2022/06/22 02:28:27;;;;;;;6.28;5.68;;;9.60;99.90;;;;;;4942842;28;20576;-43
2022/06/22 02:30:53;;;;;;;6.97;5.47;;;9.50;99.90;;;;;;4959200;28;20496;-44
2022/06/22 02:33:19;;;;;;;6.70;5.57;;;9.50;99.90;;;;;;4958617;28;20435;-44
2022/06/22 02:35:46;;;;;;;7.88;6.28;;;9.40;99.90;;;;;;4959077;28;20508;-43
2022/06/22 02:38:13;;;;;;;5.75;5.15;;;9.40;99.90;;;;;;4958854;28;20074;-45
2022/06/22 02:46:15;;;;;;;6.93;6.30;;;9.20;99.90;;;;;;4960721;28;20055;-44
2022/06/22 02:48:56;;;;;;;8.13;7.32;;;9.20;99.90;;;;;;4962369;28;20054;-43
2022/06/22 02:51:42;;;;;;;6.90;6.20;;;9.10;99.90;;;;;;4959825;28;20062;-48
2022/06/22 02:54:23;;;;;;;6.40;5.65;;;9.10;99.90;;;;;;5018574;28;20063;-41
2022/06/22 02:57:22;;;;;;;7.00;5.72;;;9.10;99.90;;;;;;5020130;28;20049;-42
2022/06/22 02:59:49;;;;;;;7.40;6.70;;;9.00;99.90;;;;;;5006271;28;20053;-41
2022/06/22 03:02:17;;;;;;;9.43;8.50;;;9.00;99.90;;;;;;5007013;28;20053;-41
2022/06/22 03:04:44;;;;;;;19.58;8.68;;;9.00;99.90;;;;;;5024559;28;20102;-41
2022/06/22 03:07:10;;;;;;;10.02;9.13;;;9.00;99.90;;;;;;5024068;28;20048;-42
2022/06/22 03:09:38;;;;;;;10.23;9.27;;;9.10;99.90;;;;;;5024298;28;20053;-42
2022/06/22 03:12:05;;;;;;;10.82;9.85;;;9.10;99.90;;;;;;5024406;28;20076;-42
2022/06/22 03:14:32;;;;;;;10.32;9.32;;;9.10;99.90;;;;;;5005704;28;20053;-41
2022/06/22 03:17:16;;;;;;;10.60;9.60;;;9.10;99.90;;;;;;5025048;28;20088;-42
2022/06/22 03:20:00;;;;;;;9.52;8.52;;;9.10;99.90;;;;;;5006674;28;20559;-41
2022/06/22 03:22:35;;;;;;;11.02;8.20;;;9.10;99.90;;;;;;5005529;28;20057;-42
2022/06/22 03:25:15;;;;;;;12.45;8.80;;;9.00;99.90;;;;;;5016548;28;20057;-41
2022/06/22 03:27:45;;;;;;;10.25;8.18;;;9.00;99.90;;;;;;5006117;28;20056;-42
2022/06/22 03:30:20;;;;;;;9.10;8.25;;;9.00;99.90;;;;;;5006633;28;20515;-43
2022/06/22 03:32:59;;;;;;;20.60;9.13;;;9.00;99.90;;;;;;5027586;28;20056;-41
2022/06/22 03:35:28;;;;;;;37.75;8.77;;;9.00;99.90;;;;;;5023759;28;20057;-42
2022/06/22 03:37:59;;;;;;;7.90;7.10;;;9.00;99.90;;;;;;5006729;28;20064;-42
2022/06/22 03:40:30;;;;;;;6.93;5.35;;;9.00;99.90;;;;;;5026222;28;20710;-42
2022/06/22 03:43:04;;;;;;;6.22;5.63;;;9.00;99.90;;;;;;5006248;28;20056;-43
2022/06/22 03:45:41;;;;;;;6.18;5.57;;;9.00;99.90;;;;;;5023622;28;20053;-41
2022/06/22 03:48:11;;;;;;;8.10;5.00;;;9.00;99.90;;;;;;5022717;28;20045;-45
2022/06/22 03:51:07;;;;;;;11.32;5.22;;;9.00;99.90;;;;;;5005916;28;20053;-43
2022/06/22 03:53:39;;;;;;;20.15;6.15;;;8.90;99.90;;;;;;5038738;28;20059;-42
2022/06/22 03:56:11;;;;;;;5.47;4.97;;;8.90;99.90;;;;;;5026593;28;20908;-41
2022/06/22 03:58:41;;;;;;;6.10;5.60;;;8.90;99.90;;;;;;5040808;28;20049;-41
2022/06/22 04:01:07;;;;;;;6.25;5.45;;;9.30;99.90;;;;;;5028284;28;20546;-42
2022/06/22 04:03:33;;;;;;;22.40;6.22;;;9.70;99.90;;;;;;5030420;28;20045;-46
2022/06/22 04:06:00;;;;;;;5.68;5.28;;;9.90;99.90;;;;;;5005379;28;20053;-43
2022/06/22 04:08:37;;;;;;;6.65;4.88;;;10.30;99.90;;;;;;5023666;28;20415;-44
2022/06/22 04:11:12;;;;;;;4.70;4.20;;;11.00;99.90;;;;;;5021543;28;20403;-42
2022/06/22 04:13:51;;;;;;;4.13;3.83;;;11.60;99.90;;;;;;5005324;28;20053;-43
2022/06/22 04:16:22;;;;;;;4.53;4.03;;;11.90;99.90;;;;;;5017866;28;20477;-44
2022/06/22 04:19:08;;;;;;;4.07;3.67;;;12.30;99.90;;;;;;5022850;28;20053;-44
2022/06/22 04:21:39;;;;;;;4.93;4.45;;;12.60;99.90;;;;;;5032871;28;20053;-45
2022/06/22 04:24:15;;;;;;;13.68;5.55;;;13.10;99.90;;;;;;5034651;28;20059;-42
2022/06/22 04:27:04;;;;;;;13.32;5.25;;;13.70;99.90;;;;;;5025354;28;20126;-43
2022/06/22 04:29:39;;;;;;;7.70;4.72;;;14.70;99.90;;;;;;5039743;28;20619;-43
2022/06/22 04:32:51;;;;;;;6.30;4.43;;;15.60;99.90;;;;;;5034833;28;20686;-43
2022/06/22 04:35:30;;;;;;;4.93;4.50;;;16.60;99.90;;;;;;4944437;28;20145;-43
2022/06/22 04:38:17;;;;;;;6.03;4.18;;;17.80;99.90;;;;;;4979541;28;20050;-44
2022/06/22 04:41:00;;;;;;;5.53;4.97;;;19.10;99.90;;;;;;4952671;28;20562;-44
2022/06/22 04:43:27;;;;;;;5.50;5.00;;;20.00;99.90;;;;;;4962218;28;20058;-42
2022/06/22 04:45:54;;;;;;;6.38;4.90;;;20.80;99.90;;;;;;4978804;28;20054;-44
2022/06/22 04:48:36;;;;;;;5.57;4.95;;;21.40;99.90;;;;;;4980171;28;20054;-43
2022/06/22 04:51:04;;;;;;;6.70;5.25;;;22.20;99.20;;;;;;4964480;28;20190;-43
2022/06/22 04:53:44;;;;;;;6.65;5.43;;;22.90;99.20;;;;;;4973402;28;20067;-44
2022/06/22 04:56:13;;;;;;;6.20;4.82;;;23.40;97.90;;;;;;4979055;28;20176;-43
2022/06/22 04:58:54;;;;;;;6.68;6.00;;;24.10;96.80;;;;;;4979794;28;20541;-43
2022/06/22 05:01:34;;;;;;;10.90;6.57;;;24.70;95.30;;;;;;4980509;28;20050;-43
2022/06/22 05:04:09;;;;;;;8.85;6.82;;;25.00;94.70;;;;;;4976435;28;20548;-43
2022/06/22 05:07:00;;;;;;;8.00;7.20;;;25.20;94.60;;;;;;4979582;28;20583;-44
2022/06/22 05:09:35;;;;;;;7.22;6.53;;;25.70;93.70;;;;;;4964769;28;20054;-44
2022/06/22 05:12:02;;;;;;;6.90;6.30;;;26.00;93.10;;;;;;4996345;28;20064;-43
2022/06/22 05:14:32;;;;;;;9.20;8.43;;;25.90;92.90;;;;;;5042101;28;20049;-45
2022/06/22 05:17:02;;;;;;;13.18;9.20;;;25.90;93.20;;;;;;5042454;28;20053;-48
2022/06/22 05:19:38;;;;;;;10.85;9.85;;;26.10;92.80;;;;;;5031173;28;20080;-47
2022/06/22 05:22:12;;;;;;;11.48;10.40;;;25.90;92.90;;;;;;5041951;28;20131;-45
2022/06/22 05:24:43;;;;;;;12.25;11.00;;;26.30;92.60;;;;;;5039635;28;20932;-43
2022/06/22 05:27:13;;;;;;;11.65;10.50;;;26.60;92.50;;;;;;5041627;28;20051;-43
2022/06/22 05:29:47;;;;;;;10.98;9.98;;;26.90;92.40;;;;;;5023083;28;20114;-44
2022/06/22 05:32:16;;;;;;;11.30;10.30;;;27.30;91.90;;;;;;5042264;28;20068;-45
2022/06/22 05:34:45;;;;;;;11.90;10.77;;;27.50;91.80;;;;;;5047722;28;20077;-44
2022/06/22 05:37:17;;;;;;;13.15;10.65;;;27.70;91.30;;;;;;5006708;28;20091;-45
2022/06/22 05:39:44;;;;;;;15.15;10.38;;;28.20;90.50;;;;;;5054472;28;20073;-44
2022/06/22 05:42:11;;;;;;;11.63;9.15;;;28.30;91.00;;;;;;5042503;28;20083;-44
2022/06/22 05:44:40;;;;;;;13.40;8.70;;;28.40;90.90;;;;;;5040005;28;21848;-44
2022/06/22 05:47:27;;;;;;;12.20;9.93;;;29.10;90.60;;;;;;5040154;28;20435;-44
2022/06/22 05:50:22;;;;;;;10.25;8.98;;;29.50;88.60;;;;;;5022624;28;20056;-44
2022/06/22 05:53:20;;;;;;;9.95;9.15;;;29.80;88.90;;;;;;5041508;28;20053;-44
2022/06/22 05:55:57;;;;;;;10.05;9.00;;;30.50;87.40;;;;;;5032544;28;20049;-44
2022/06/22 05:58:33;;;;;;;9.23;8.43;;;31.00;86.80;;;;;;5022753;28;20060;-45
2022/06/22 06:01:00;;;;;;;9.90;8.90;;;30.80;86.80;;;;;;5041422;28;20522;-46
2022/06/22 06:03:58;;;;;;;10.27;9.10;;;30.70;85.30;;;;;;5040294;28;20048;-45
2022/06/22 06:06:31;;;;;;;11.38;9.20;;;30.90;86.60;;;;;;4958246;28;20061;-44
2022/06/22 06:09:04;;;;;;;10.35;8.95;;;31.20;85.60;;;;;;4959505;28;20054;-47
2022/06/22 06:11:35;;;;;;;13.82;8.65;;;31.60;85.10;;;;;;4943466;28;20066;-45
2022/06/22 06:14:07;;;;;;;9.93;7.53;;;31.40;84.50;;;;;;4959868;28;20209;-46
2022/06/22 06:16:45;;;;;;;9.40;8.50;;;31.60;84.00;;;;;;4958778;28;20442;-45
2022/06/22 06:19:16;;;;;;;9.57;8.52;;;31.50;83.50;;;;;;4943273;28;20444;-45
2022/06/22 06:21:42;;;;;;;10.23;9.23;;;31.80;83.60;;;;;;4947664;28;20069;-45
2022/06/22 06:24:23;;;;;;;10.40;9.40;;;31.50;82.60;;;;;;4941004;29;20055;-45
2022/06/22 06:30:13;;;;;;;10.52;9.43;;;32.20;80.50;;;;;;4940561;29;20059;-47
2022/06/22 06:32:59;;;;;;;9.82;8.85;;;32.20;81.00;;;;;;4941237;28;20056;-45
2022/06/22 06:35:42;;;;;;;10.93;7.60;;;32.30;79.80;;;;;;4941004;29;20413;-48
2022/06/22 06:38:23;;;;;;;7.35;6.65;;;32.20;79.40;;;;;;4924516;29;20053;-55
2022/06/22 06:40:58;;;;;;;9.20;7.47;;;32.30;79.00;;;;;;4930969;29;20195;-46
2022/06/22 06:43:43;;;;;;;8.63;6.82;;;32.60;77.40;;;;;;4994776;28;20512;-45
2022/06/22 06:46:17;;;;;;;6.90;6.05;;;32.50;76.80;;;;;;5033264;28;20067;-47
2022/06/22 06:48:49;;;;;;;7.78;7.00;;;32.50;78.40;;;;;;5019309;28;20062;-45
2022/06/22 06:51:19;;;;;;;9.23;6.93;;;32.80;77.70;;;;;;5020795;28;20058;-44
2022/06/22 06:54:20;;;;;;;8.73;6.38;;;32.30;77.90;;;;;;5026044;28;20586;-44
2022/06/22 06:57:00;;;;;;;8.88;7.18;;;31.80;76.90;;;;;;4943372;28;20063;-44
2022/06/22 06:59:29;;;;;;;8.32;6.38;;;31.70;77.60;;;;;;4943636;28;20936;-45
2022/06/22 07:02:02;;;;;;;9.68;6.95;;;31.50;78.80;;;;;;4958192;28;20050;-46
2022/06/22 07:04:32;;;;;;;9.40;6.72;;;32.20;78.20;;;;;;4958208;28;20424;-47
2022/06/22 07:07:04;;;;;;;7.82;5.68;;;31.90;75.90;;;;;;4958631;28;20117;-46
2022/06/22 07:09:35;;;;;;;7.70;5.85;;;32.00;76.70;;;;;;4942788;28;20054;-46
2022/06/22 07:12:33;;;;;;;9.60;6.22;;;32.00;77.00;;;;;;4943011;28;20051;-48
2022/06/22 07:15:03;;;;;;;7.95;5.78;;;31.40;75.40;;;;;;4959783;28;20067;-46
2022/06/22 07:17:32;;;;;;;7.20;5.88;;;31.60;77.70;;;;;;4944364;28;20062;-45
2022/06/22 07:20:21;;;;;;;7.32;5.65;;;31.50;76.20;;;;;;4973479;28;20433;-46
2022/06/22 07:22:52;;;;;;;8.77;5.68;;;31.20;76.80;;;;;;4969165;28;20161;-47
2022/06/22 07:25:24;;;;;;;9.80;5.25;;;31.00;75.80;;;;;;4976481;28;20934;-46
2022/06/22 07:27:55;;;;;;;;;;;30.70;76.80;;;;;;4963289;28;20070;-46
2022/06/22 07:30:37;;;;;;;9.07;6.28;;;30.20;78.10;;;;;;4971960;28;20839;-45
2022/06/22 07:33:23;;;;;;;8.52;4.80;;;29.20;78.40;;;;;;4999664;28;20632;-44
2022/06/22 07:35:56;;;;;;;8.27;5.47;;;28.60;78.40;;;;;;5038366;28;20499;-44
2022/06/22 07:38:58;;;;;;;6.85;4.80;;;27.60;78.80;;;;;;5004597;28;20061;-44
2022/06/22 07:41:26;;;;;;;10.33;5.20;;;27.50;80.40;;;;;;5021086;28;20049;-46
2022/06/22 07:43:55;;;;;;;7.88;5.65;;;27.30;80.00;;;;;;5028530;28;20052;-46
2022/06/22 07:46:57;;;;;;;7.03;4.90;;;27.10;79.70;;;;;;5011475;28;20119;-46
2022/06/22 07:49:23;;;;;;;7.40;5.38;;;26.90;79.90;;;;;;5025887;28;20167;-47
2022/06/22 07:52:01;;;;;;;8.70;5.85;;;26.70;81.40;;;;;;5007835;28;20053;-45
2022/06/22 07:54:32;;;;;;;9.27;5.78;;;26.40;81.00;;;;;;5025467;28;20128;-47
2022/06/22 07:57:13;;;;;;;8.90;5.28;;;26.20;81.20;;;;;;5025471;28;20135;-46
2022/06/22 07:59:43;;;;;;;8.20;4.80;;;25.50;82.10;;;;;;5026114;28;20135;-50
2022/06/22 08:02:31;;;;;;;7.80;5.07;;;25.70;82.90;;;;;;5024740;28;20690;-46
2022/06/22 08:05:08;;;;;;;8.35;4.70;;;25.50;84.10;;;;;;5020446;28;20068;-47
2022/06/22 08:07:51;;;;;;;7.97;4.80;;;25.50;84.20;;;;;;5035122;28;20045;-47
2022/06/22 08:10:38;;;;;;;10.02;5.50;;;25.60;84.90;;;;;;5027361;28;20045;-45
2022/06/22 08:13:27;;;;;;;10.52;5.65;;;25.50;83.30;;;;;;5027690;28;20132;-46
2022/06/22 08:15:55;;;;;;;8.70;5.38;;;25.30;83.70;;;;;;5013154;28;20083;-45
2022/06/22 08:18:21;;;;;;;7.93;5.10;;;25.10;84.20;;;;;;5008202;28;20045;-44
2022/06/22 08:20:51;;;;;;;7.57;4.82;;;24.70;84.50;;;;;;5005973;28;20060;-44
2022/06/22 08:23:26;;;;;;;10.93;5.50;;;24.70;86.20;;;;;;5043009;28;20056;-44
2022/06/22 08:25:53;;;;;;;8.77;5.45;;;24.40;83.80;;;;;;5044151;28;20045;-44
2022/06/22 08:28:24;;;;;;;6.00;4.57;;;24.30;84.80;;;;;;5040610;28;20045;-44
2022/06/22 08:30:53;;;;;;;7.80;5.13;;;24.20;84.90;;;;;;5043077;28;20048;-45
2022/06/22 08:33:37;;;;;;;9.23;4.47;;;24.30;84.70;;;;;;5041169;28;20040;-45
2022/06/22 08:36:17;;;;;;;8.02;5.35;;;24.20;84.70;;;;;;5044129;28;20060;-45
2022/06/22 08:39:04;;;;;;;11.02;5.60;;;24.00;86.90;;;;;;5048801;28;20083;-43
2022/06/22 08:42:24;;;;;;;11.38;5.85;;;24.20;87.40;;;;;;5041393;28;20045;-44
2022/06/22 08:45:18;;;;;;;9.43;4.80;;;24.40;87.50;;;;;;5039943;28;20057;-44
2022/06/22 08:47:50;;;;;;;9.95;5.07;;;24.30;87.00;;;;;;5044763;28;20080;-45
2022/06/22 08:50:43;;;;;;;8.52;5.53;;;24.00;84.60;;;;;;5044998;28;20045;-46
2022/06/22 08:53:35;;;;;;;7.88;4.95;;;24.00;88.20;;;;;;5043192;28;20122;-46
2022/06/22 08:56:14;;;;;;;6.60;4.28;;;24.00;85.00;;;;;;5042668;28;20057;-44
2022/06/22 08:59:09;;;;;;;10.95;5.57;;;23.70;82.30;;;;;;5043668;28;20041;-46
2022/06/22 09:01:59;;;;;;;8.32;5.05;;;23.60;84.90;;;;;;5042521;28;20082;-47
2022/06/22 09:04:46;;;;;;;9.07;4.22;;;23.40;85.20;;;;;;5042165;28;20060;-45
2022/06/22 09:07:19;;;;;;;9.55;4.93;;;23.50;84.70;;;;;;5043148;28;20137;-45
2022/06/22 09:09:54;;;;;;;;;;;23.70;84.80;;;;;;5043406;28;20862;-46
2022/06/22 09:12:38;;;;;;;7.85;4.03;;;23.60;83.50;;;;;;5044359;28;20739;-45
2022/06/22 09:15:21;;;;;;;6.68;4.70;;;23.90;86.10;;;;;;5042515;28;20071;-45
2022/06/22 09:17:53;;;;;;;8.55;4.72;;;24.10;84.60;;;;;;5041466;28;20092;-46
2022/06/22 09:20:47;;;;;;;8.73;4.50;;;24.10;85.10;;;;;;5043117;28;20236;-47
2022/06/22 09:23:31;;;;;;;8.57;5.07;;;24.30;85.00;;;;;;5042930;28;20118;-44
2022/06/22 09:26:06;;;;;;;9.68;4.70;;;24.00;83.20;;;;;;5038601;28;20106;-44
2022/06/22 09:28:55;;;;;;;6.10;3.38;;;23.90;83.70;;;;;;5039289;28;20544;-45
2022/06/22 09:32:07;;;;;;;6.97;4.00;;;24.10;81.20;;;;;;5044792;28;20084;-48
2022/06/22 09:34:57;;;;;;;8.48;4.30;;;24.00;82.90;;;;;;4943352;28;20059;-48
2022/06/22 09:37:43;;;;;;;7.13;3.95;;;24.10;82.50;;;;;;4960465;28;20062;-47
2022/06/22 09:40:29;;;;;;;7.07;4.10;;;24.20;85.30;;;;;;4953648;28;20062;-45
2022/06/22 09:43:25;;;;;;;7.03;4.05;;;24.30;85.90;;;;;;4943187;28;20127;-46
2022/06/22 09:45:56;;;;;;;9.50;3.95;;;24.20;84.10;;;;;;4955905;28;20059;-46
2022/06/22 09:48:59;;;;;;;6.55;3.15;;;24.20;86.50;;;;;;4958105;28;20618;-46
2022/06/22 09:51:30;;;;;;;5.22;3.15;;;24.10;82.20;;;;;;4936384;28;20074;-45
2022/06/22 09:56:19;;;;;;;7.85;4.22;;;24.30;84.40;;;;;;4958739;28;20078;-45
2022/06/22 09:57:27;;;;;;;6.05;3.58;;;24.20;79.40;;;;;;4952122;28;20059;-45
2022/06/22 10:00:05;;;;;;;7.13;3.58;;;24.00;81.00;;;;;;4956986;28;20637;-44
2022/06/22 10:03:03;;;;;;;5.90;3.03;;;24.10;81.80;;;;;;4957157;28;20049;-44
2022/06/22 10:05:50;;;;;;;7.82;3.53;;;24.20;83.10;;;;;;4957718;28;20059;-46
2022/06/22 10:08:28;;;;;;;8.50;3.10;;;24.40;82.80;;;;;;4947508;28;20054;-47
2022/06/22 10:11:20;;;;;;;8.18;3.30;;;24.60;82.10;;;;;;4963920;28;20069;-44
2022/06/22 10:14:12;;;;;;;5.87;3.30;;;24.60;79.30;;;;;;5035325;28;20573;-44
2022/06/22 10:16:53;;;;;;;6.97;3.10;;;24.50;79.10;;;;;;5041845;28;20073;-45
2022/06/22 10:19:29;;;;;;;5.75;3.38;;;24.70;82.20;;;;;;5057087;28;20160;-45
2022/06/22 10:22:04;;;;;;;8.43;3.80;;;24.70;82.90;;;;;;5034023;28;20065;-47
2022/06/22 10:25:00;;;;;;;7.18;3.33;;;24.80;81.10;;;;;;5040119;28;20503;-46
2022/06/22 10:28:06;;;;;;;7.00;3.28;;;24.80;82.10;;;;;;5041763;28;20099;-46
2022/06/22 10:30:50;;;;;;;4.45;3.22;;;24.80;79.90;;;;;;5035293;28;20059;-44
2022/06/22 10:33:22;;;;;;;7.30;3.75;;;24.40;81.00;;;;;;5040127;28;20483;-45
2022/06/22 10:36:36;;;;;;;7.70;4.00;;;24.40;79.40;;;;;;5048430;28;20437;-44
2022/06/22 10:39:04;;;;;;;9.13;3.63;;;24.40;80.30;;;;;;4962677;28;20086;-44
2022/06/22 10:47:55;;;;;;;7.70;3.15;;;24.50;83.10;;;;;;4956185;28;20069;-44
2022/06/22 10:50:47;;;;;;;7.35;3.30;;;24.50;81.50;;;;;;4959650;28;20054;-45
2022/06/22 10:53:49;;;;;;;4.68;2.80;;;24.40;81.40;;;;;;4942643;28;20051;-46
2022/06/22 10:56:32;;;;;;;6.63;3.45;;;24.50;80.70;;;;;;4947209;28;20697;-44
2022/06/22 10:59:34;;;;;;;7.90;3.88;;;24.60;81.20;;;;;;4942641;28;20066;-45
2022/06/22 11:02:21;;;;;;;4.68;3.30;;;24.60;80.90;;;;;;4959265;28;20113;-45
2022/06/22 11:05:02;;;;;;;6.20;3.85;;;24.60;80.80;;;;;;4942249;28;20106;-44
2022/06/22 11:07:38;;;;;;;5.32;3.38;;;24.70;80.80;;;;;;4958714;28;20064;-45
2022/06/22 11:10:20;;;;;;;9.45;3.35;;;24.60;81.70;;;;;;4966677;28;20105;-45
2022/06/22 11:13:39;;;;;;;5.55;3.15;;;24.60;80.80;;;;;;4978627;28;20058;-45
2022/06/22 11:16:43;;;;;;;6.75;3.30;;;24.70;82.20;;;;;;4937673;28;20090;-44
2022/06/22 11:19:46;;;;;;;7.05;3.45;;;24.80;80.00;;;;;;4974003;28;20043;-45
2022/06/22 11:22:31;;;;;;;4.72;3.03;;;24.70;80.40;;;;;;4963930;28;20133;-45
2022/06/22 11:31:56;;;;;;;6.63;3.03;;;24.60;80.90;;;;;;4942075;29;20051;-44
2022/06/22 11:34:57;;;;;;;6.43;3.33;;;24.70;79.10;;;;;;4926022;29;20068;-44
2022/06/22 11:37:42;;;;;;;4.63;2.75;;;24.80;78.60;;;;;;4938079;29;20461;-46
2022/06/22 11:40:24;;;;;;;6.38;3.28;;;24.90;80.80;;;;;;4939235;29;20130;-45
2022/06/22 11:43:17;;;;;;;5.53;2.97;;;24.80;79.70;;;;;;4934831;29;20059;-46
2022/06/22 11:46:18;;;;;;;6.10;3.47;;;25.10;82.00;;;;;;4936902;29;20063;-46
2022/06/22 11:49:03;;;;;;;6.80;4.28;;;25.30;80.40;;;;;;4922578;29;20067;-45
2022/06/22 11:51:50;;;;;;;8.05;4.45;;;25.30;79.80;;;;;;4942505;29;20533;-45
2022/06/22 11:54:24;;;;;;;8.13;4.18;;;25.10;80.20;;;;;;4926852;29;20063;-44
2022/06/22 11:56:56;;;;;;;7.03;4.03;;;25.40;82.00;;;;;;4927561;29;20047;-46
2022/06/22 11:59:42;;;;;;;7.22;3.70;;;25.40;80.40;;;;;;4922997;29;20060;-44
2022/06/22 12:02:08;;;;;;;7.07;3.65;;;25.10;79.30;;;;;;4922896;29;20058;-46
2022/06/22 12:05:08;;;;;;;7.50;3.90;;;25.00;81.50;;;;;;4947942;28;20046;-44
2022/06/22 12:08:04;;;;;;;7.47;3.67;;;25.00;80.10;;;;;;4980392;28;20086;-44
2022/06/22 12:10:47;;;;;;;7.43;3.88;;;24.80;80.10;;;;;;4974596;28;20132;-44
2022/06/22 12:13:39;;;;;;;4.65;3.40;;;24.80;83.00;;;;;;4980779;28;20062;-47
2022/06/22 12:16:13;;;;;;;8.43;4.50;;;24.80;80.30;;;;;;4976593;28;20058;-44
2022/06/22 12:19:00;;;;;;;5.28;3.42;;;24.70;81.90;;;;;;5000922;28;20276;-45
2022/06/22 12:21:43;;;;;;;7.45;3.95;;;24.70;83.10;;;;;;5004988;28;20495;-46
2022/06/22 12:24:41;;;;;;;8.98;4.15;;;24.80;81.20;;;;;;5012193;28;20081;-46
2022/06/22 12:27:24;;;;;;;6.28;3.63;;;24.90;80.60;;;;;;5000913;28;20072;-45
2022/06/22 12:30:24;;;;;;;6.30;3.83;;;24.80;81.00;;;;;;4985484;28;20571;-46
2022/06/22 12:33:14;;;;;;;7.03;3.50;;;24.80;82.80;;;;;;5000698;28;20597;-47
2022/06/22 12:36:11;;;;;;;6.85;3.60;;;24.70;81.40;;;;;;4925582;29;20145;-44
2022/06/22 12:38:55;;;;;;;5.93;3.28;;;24.80;81.80;;;;;;4941100;29;20577;-44
2022/06/22 12:41:41;;;;;;;6.18;3.90;;;24.90;83.10;;;;;;4926083;29;20130;-45
2022/06/22 12:44:36;;;;;;;5.38;3.45;;;24.90;84.00;;;;;;4944643;28;20097;-45
2022/06/22 12:47:21;;;;;;;5.57;3.53;;;24.90;80.80;;;;;;4935426;29;20788;-44
2022/06/22 12:49:52;;;;;;;6.13;3.55;;;24.90;83.10;;;;;;4925450;29;20058;-44
2022/06/22 12:52:35;;;;;;;6.47;4.10;;;24.90;83.40;;;;;;4940543;29;20059;-45
2022/06/22 12:55:21;;;;;;;;;;;25.10;81.60;;;;;;4941272;29;20063;-44
2022/06/22 12:58:19;;;;;;;10.90;4.00;;;25.00;82.90;;;;;;4924440;29;19930;-45
2022/06/22 13:00:45;;;;;;;8.45;4.57;;;24.90;82.40;;;;;;4919701;28;20066;-48
2022/06/22 13:03:18;;;;;;;7.68;3.95;;;24.90;82.50;;;;;;4958805;28;20519;-45
2022/06/22 13:05:45;;;;;;;8.25;4.03;;;24.90;81.80;;;;;;4979478;28;20058;-45
2022/06/22 13:08:17;;;;;;;7.97;4.72;;;24.90;81.50;;;;;;4962011;28;20474;-47
2022/06/22 13:10:49;;;;;;;6.70;3.47;;;24.90;82.20;;;;;;4981019;28;20576;-45
2022/06/22 13:13:41;;;;;;;7.35;3.38;;;24.70;82.20;;;;;;5021329;28;20542;-46
2022/06/22 13:16:34;;;;;;;6.32;3.30;;;24.90;83.60;;;;;;5041864;28;20044;-47
2022/06/22 13:19:11;;;;;;;6.72;4.03;;;25.00;85.60;;;;;;5041898;28;20495;-45
2022/06/22 13:21:50;;;;;;;5.70;3.90;;;25.10;83.70;;;;;;5031332;28;20089;-45
2022/06/22 13:24:23;;;;;;;8.27;4.72;;;25.10;84.00;;;;;;5018681;28;20053;-46
2022/06/22 13:27:19;;;;;;;6.15;4.03;;;24.90;83.30;;;;;;5021131;28;20135;-46
2022/06/22 13:30:01;;;;;;;12.63;5.28;;;25.00;84.60;;;;;;5023614;28;20053;-44
2022/06/22 13:32:31;;;;;;;10.85;5.05;;;25.00;83.70;;;;;;5023627;28;20092;-45
2022/06/22 13:35:04;;;;;;;6.07;4.07;;;25.00;83.80;;;;;;5023308;28;20060;-44
2022/06/22 13:37:45;;;;;;;8.55;4.63;;;25.10;83.30;;;;;;5041516;28;20052;-45
2022/06/22 13:40:37;;;;;;;7.60;3.60;;;25.20;83.40;;;;;;5024423;28;20049;-44
2022/06/22 13:43:26;;;;;;;6.82;4.60;;;25.10;83.90;;;;;;5016344;28;20526;-45
2022/06/22 13:46:20;;;;;;;11.98;5.55;;;25.10;83.60;;;;;;5014662;28;20053;-44
2022/06/22 13:49:00;;;;;;;8.05;4.70;;;25.00;84.50;;;;;;5005506;28;20145;-45
2022/06/22 13:51:51;;;;;;;9.13;5.00;;;24.90;84.30;;;;;;5023365;28;20057;-47
2022/06/22 13:54:34;;;;;;;5.65;3.97;;;24.90;84.10;;;;;;5042040;28;20462;-45
2022/06/22 13:57:26;;;;;;;6.93;4.38;;;25.10;86.60;;;;;;5024411;28;20056;-45
2022/06/22 13:59:58;;;;;;;10.50;4.50;;;25.10;85.20;;;;;;5035793;28;20869;-47
2022/06/22 14:02:52;;;;;;;9.35;4.90;;;25.10;84.10;;;;;;5015098;28;20057;-45
2022/06/22 14:05:51;;;;;;;9.55;5.28;;;25.10;85.60;;;;;;5021447;28;20046;-44
2022/06/22 14:08:40;;;;;;;8.13;4.93;;;25.00;88.80;;;;;;5021010;28;20085;-45
2022/06/22 14:11:24;;;;;;;10.10;5.00;;;24.90;89.30;;;;;;5004398;28;20060;-43
2022/06/22 14:14:08;;;;;;;8.77;5.22;;;24.70;86.80;;;;;;5003825;28;20088;-47
2022/06/22 14:16:43;;;;;;;8.43;5.32;;;24.60;87.40;;;;;;5019423;28;20056;-45